<?xml version="1.0" encoding="UTF-8" standalone="no" ?>
<gpx xmlns="http://www.topografix.com/GPX/1/1" xmlns:xsi="http://www.w3.org/2001/XMLSchema-instance" xsi:schemaLocation="http://www.topografix.com/GPX/1/1 http://www.topografix.com/GPX/1/1/gpx.xsd" version="1.1" creator="VisuGPX - https://www.visugpx.com">
  <metadata>
    <name>GJT J3</name>
    <desc><![CDATA[J3 de la GTJ]]></desc>
  </metadata>
  <trk>
    <name><![CDATA[--Morteau-- OR-2839180:GTJ - De Morteau à Bellegarde]]></name>
    <desc><![CDATA[Total: 56.2km]]></desc>
    <trkseg>
      <trkpt lat="46.48423" lon="6.06001">
        <ele>1109</ele>
        <time>2016-04-28T03:22:13Z</time>
      </trkpt>
      <trkpt lat="46.48414" lon="6.05993">
        <ele>1109</ele>
        <time>2016-04-28T03:24:13Z</time>
      </trkpt>
      <trkpt lat="46.48457" lon="6.05912">
        <ele>1107</ele>
        <time>2016-04-28T03:26:13Z</time>
      </trkpt>
      <trkpt lat="46.48527" lon="6.05858">
        <ele>1109</ele>
        <time>2016-04-28T03:28:13Z</time>
      </trkpt>
      <trkpt lat="46.48484" lon="6.0579">
        <ele>1111</ele>
        <time>2016-04-28T03:30:13Z</time>
      </trkpt>
      <trkpt lat="46.4845" lon="6.05709">
        <ele>1113</ele>
        <time>2016-04-28T03:32:13Z</time>
      </trkpt>
      <trkpt lat="46.48484" lon="6.05646">
        <ele>1112</ele>
        <time>2016-04-28T03:34:13Z</time>
      </trkpt>
      <trkpt lat="46.48478" lon="6.05548">
        <ele>1105</ele>
        <time>2016-04-28T03:36:13Z</time>
      </trkpt>
      <trkpt lat="46.48383" lon="6.05444">
        <ele>1107</ele>
        <time>2016-04-28T03:38:13Z</time>
      </trkpt>
      <trkpt lat="46.48317" lon="6.0538">
        <ele>1109</ele>
        <time>2016-04-28T03:40:13Z</time>
      </trkpt>
      <trkpt lat="46.48308" lon="6.05249">
        <ele>1100</ele>
        <time>2016-04-28T03:42:13Z</time>
      </trkpt>
      <trkpt lat="46.48277" lon="6.05091">
        <ele>1086</ele>
        <time>2016-04-28T03:44:13Z</time>
      </trkpt>
      <trkpt lat="46.48152" lon="6.04932">
        <ele>1077</ele>
        <time>2016-04-28T03:46:13Z</time>
      </trkpt>
      <trkpt lat="46.48064" lon="6.04855">
        <ele>1074</ele>
        <time>2016-04-28T03:48:13Z</time>
      </trkpt>
      <trkpt lat="46.47989" lon="6.04797">
        <ele>1070</ele>
        <time>2016-04-28T03:50:13Z</time>
      </trkpt>
      <trkpt lat="46.47948" lon="6.0469">
        <ele>1050</ele>
        <time>2016-04-28T03:52:13Z</time>
      </trkpt>
      <trkpt lat="46.47872" lon="6.04659">
        <ele>1042</ele>
        <time>2016-04-28T03:54:13Z</time>
      </trkpt>
      <trkpt lat="46.47773" lon="6.04672">
        <ele>1038</ele>
        <time>2016-04-28T03:56:13Z</time>
      </trkpt>
      <trkpt lat="46.47682" lon="6.04698">
        <ele>1034</ele>
        <time>2016-04-28T03:58:13Z</time>
      </trkpt>
      <trkpt lat="46.47553" lon="6.04781">
        <ele>1029</ele>
        <time>2016-04-28T04:00:13Z</time>
      </trkpt>
      <trkpt lat="46.47388" lon="6.04861">
        <ele>1029</ele>
        <time>2016-04-28T04:02:13Z</time>
      </trkpt>
      <trkpt lat="46.47279" lon="6.04912">
        <ele>1029</ele>
        <time>2016-04-28T04:04:13Z</time>
      </trkpt>
      <trkpt lat="46.47158" lon="6.04897">
        <ele>1021</ele>
        <time>2016-04-28T04:06:13Z</time>
      </trkpt>
      <trkpt lat="46.47013" lon="6.04907">
        <ele>1013</ele>
        <time>2016-04-28T04:08:13Z</time>
      </trkpt>
      <trkpt lat="46.46865" lon="6.05027">
        <ele>1028</ele>
        <time>2016-04-28T04:10:13Z</time>
      </trkpt>
      <trkpt lat="46.46701" lon="6.05087">
        <ele>1028</ele>
        <time>2016-04-28T04:12:13Z</time>
      </trkpt>
      <trkpt lat="46.46604" lon="6.05146">
        <ele>1024</ele>
        <time>2016-04-28T04:14:13Z</time>
      </trkpt>
      <trkpt lat="46.46536" lon="6.0518">
        <ele>1024</ele>
        <time>2016-04-28T04:16:13Z</time>
      </trkpt>
      <trkpt lat="46.4651" lon="6.05146">
        <ele>1022</ele>
        <time>2016-04-28T04:18:13Z</time>
      </trkpt>
      <trkpt lat="46.46494" lon="6.05073">
        <ele>1022</ele>
        <time>2016-04-28T04:20:13Z</time>
      </trkpt>
      <trkpt lat="46.46459" lon="6.05045">
        <ele>1030</ele>
        <time>2016-04-28T04:22:13Z</time>
      </trkpt>
      <trkpt lat="46.46512" lon="6.04938">
        <ele>1035</ele>
        <time>2016-04-28T04:24:13Z</time>
      </trkpt>
      <trkpt lat="46.46582" lon="6.04877">
        <ele>1048</ele>
        <time>2016-04-28T04:26:13Z</time>
      </trkpt>
      <trkpt lat="46.46686" lon="6.04721">
        <ele>1050</ele>
        <time>2016-04-28T04:28:13Z</time>
      </trkpt>
      <trkpt lat="46.46768" lon="6.04551">
        <ele>1058</ele>
        <time>2016-04-28T04:30:13Z</time>
      </trkpt>
      <trkpt lat="46.46807" lon="6.04456">
        <ele>1066</ele>
        <time>2016-04-28T04:32:13Z</time>
      </trkpt>
      <trkpt lat="46.46691" lon="6.04428">
        <ele>1085</ele>
        <time>2016-04-28T04:34:13Z</time>
      </trkpt>
      <trkpt lat="46.46717" lon="6.04326">
        <ele>1087</ele>
        <time>2016-04-28T04:36:13Z</time>
      </trkpt>
      <trkpt lat="46.46698" lon="6.04201">
        <ele>1093</ele>
        <time>2016-04-28T04:38:13Z</time>
      </trkpt>
      <trkpt lat="46.46573" lon="6.04042">
        <ele>1098</ele>
        <time>2016-04-28T04:40:13Z</time>
      </trkpt>
      <trkpt lat="46.46541" lon="6.03923">
        <ele>1098</ele>
        <time>2016-04-28T04:42:13Z</time>
      </trkpt>
      <trkpt lat="46.46501" lon="6.03764">
        <ele>1094</ele>
        <time>2016-04-28T04:44:13Z</time>
      </trkpt>
      <trkpt lat="46.46417" lon="6.03569">
        <ele>1100</ele>
        <time>2016-04-28T04:46:13Z</time>
      </trkpt>
      <trkpt lat="46.46408" lon="6.03451">
        <ele>1108</ele>
        <time>2016-04-28T04:48:13Z</time>
      </trkpt>
      <trkpt lat="46.46327" lon="6.03296">
        <ele>1116</ele>
        <time>2016-04-28T04:50:13Z</time>
      </trkpt>
      <trkpt lat="46.46246" lon="6.03153">
        <ele>1119</ele>
        <time>2016-04-28T04:52:13Z</time>
      </trkpt>
      <trkpt lat="46.46213" lon="6.03053">
        <ele>1117</ele>
        <time>2016-04-28T04:54:13Z</time>
      </trkpt>
      <trkpt lat="46.46148" lon="6.02977">
        <ele>1118</ele>
        <time>2016-04-28T04:56:13Z</time>
      </trkpt>
      <trkpt lat="46.46047" lon="6.02905">
        <ele>1121</ele>
        <time>2016-04-28T04:58:13Z</time>
      </trkpt>
      <trkpt lat="46.45941" lon="6.02846">
        <ele>1123</ele>
        <time>2016-04-28T05:00:13Z</time>
      </trkpt>
      <trkpt lat="46.45877" lon="6.02718">
        <ele>1124</ele>
        <time>2016-04-28T05:02:13Z</time>
      </trkpt>
      <trkpt lat="46.45778" lon="6.02581">
        <ele>1126</ele>
        <time>2016-04-28T05:04:13Z</time>
      </trkpt>
      <trkpt lat="46.45685" lon="6.02529">
        <ele>1131</ele>
        <time>2016-04-28T05:06:13Z</time>
      </trkpt>
      <trkpt lat="46.45584" lon="6.0245">
        <ele>1136</ele>
        <time>2016-04-28T05:08:13Z</time>
      </trkpt>
      <trkpt lat="46.45476" lon="6.02312">
        <ele>1143</ele>
        <time>2016-04-28T05:10:13Z</time>
      </trkpt>
      <trkpt lat="46.45405" lon="6.02281">
        <ele>1149</ele>
        <time>2016-04-28T05:12:13Z</time>
      </trkpt>
      <trkpt lat="46.4533" lon="6.02394">
        <ele>1165</ele>
        <time>2016-04-28T05:14:13Z</time>
      </trkpt>
      <trkpt lat="46.45316" lon="6.02523">
        <ele>1166</ele>
        <time>2016-04-28T05:16:13Z</time>
      </trkpt>
      <trkpt lat="46.45235" lon="6.02674">
        <ele>1184</ele>
        <time>2016-04-28T05:18:13Z</time>
      </trkpt>
      <trkpt lat="46.45186" lon="6.02801">
        <ele>1198</ele>
        <time>2016-04-28T05:20:13Z</time>
      </trkpt>
      <trkpt lat="46.45155" lon="6.02766">
        <ele>1201</ele>
        <time>2016-04-28T05:22:13Z</time>
      </trkpt>
      <trkpt lat="46.45174" lon="6.02611">
        <ele>1199</ele>
        <time>2016-04-28T05:24:13Z</time>
      </trkpt>
      <trkpt lat="46.45133" lon="6.02478">
        <ele>1210</ele>
        <time>2016-04-28T05:26:13Z</time>
      </trkpt>
      <trkpt lat="46.45125" lon="6.02184">
        <ele>1222</ele>
        <time>2016-04-28T05:28:13Z</time>
      </trkpt>
      <trkpt lat="46.4511" lon="6.02086">
        <ele>1225</ele>
        <time>2016-04-28T05:30:13Z</time>
      </trkpt>
      <trkpt lat="46.45014" lon="6.02001">
        <ele>1245</ele>
        <time>2016-04-28T05:32:13Z</time>
      </trkpt>
      <trkpt lat="46.44953" lon="6.01925">
        <ele>1256</ele>
        <time>2016-04-28T05:34:13Z</time>
      </trkpt>
      <trkpt lat="46.44805" lon="6.01759">
        <ele>1264</ele>
        <time>2016-04-28T05:36:13Z</time>
      </trkpt>
      <trkpt lat="46.44769" lon="6.01639">
        <ele>1269</ele>
        <time>2016-04-28T05:38:13Z</time>
      </trkpt>
      <trkpt lat="46.44698" lon="6.01465">
        <ele>1281</ele>
        <time>2016-04-28T05:40:13Z</time>
      </trkpt>
      <trkpt lat="46.4468" lon="6.0132">
        <ele>1282</ele>
        <time>2016-04-28T05:42:13Z</time>
      </trkpt>
      <trkpt lat="46.44595" lon="6.01152">
        <ele>1286</ele>
        <time>2016-04-28T05:44:13Z</time>
      </trkpt>
      <trkpt lat="46.44464" lon="6.01032">
        <ele>1292</ele>
        <time>2016-04-28T05:46:13Z</time>
      </trkpt>
      <trkpt lat="46.44341" lon="6.00926">
        <ele>1291</ele>
        <time>2016-04-28T05:48:13Z</time>
      </trkpt>
      <trkpt lat="46.44218" lon="6.00709">
        <ele>1289</ele>
        <time>2016-04-28T05:50:13Z</time>
      </trkpt>
      <trkpt lat="46.44091" lon="6.0044">
        <ele>1286</ele>
        <time>2016-04-28T05:52:13Z</time>
      </trkpt>
      <trkpt lat="46.43949" lon="6.00228">
        <ele>1297</ele>
        <time>2016-04-28T05:54:13Z</time>
      </trkpt>
      <trkpt lat="46.43771" lon="6.00047">
        <ele>1294</ele>
        <time>2016-04-28T05:56:13Z</time>
      </trkpt>
      <trkpt lat="46.43645" lon="5.99902">
        <ele>1287</ele>
        <time>2016-04-28T05:58:13Z</time>
      </trkpt>
      <trkpt lat="46.43574" lon="5.99734">
        <ele>1278</ele>
        <time>2016-04-28T06:00:13Z</time>
      </trkpt>
      <trkpt lat="46.4339" lon="5.99552">
        <ele>1266</ele>
        <time>2016-04-28T06:02:13Z</time>
      </trkpt>
      <trkpt lat="46.4321" lon="5.99423">
        <ele>1259</ele>
        <time>2016-04-28T06:04:13Z</time>
      </trkpt>
      <trkpt lat="46.43088" lon="5.99285">
        <ele>1239</ele>
        <time>2016-04-28T06:06:13Z</time>
      </trkpt>
      <trkpt lat="46.43047" lon="5.99171">
        <ele>1223</ele>
        <time>2016-04-28T06:08:13Z</time>
      </trkpt>
      <trkpt lat="46.4302" lon="5.99026">
        <ele>1213</ele>
        <time>2016-04-28T06:10:13Z</time>
      </trkpt>
      <trkpt lat="46.4291" lon="5.98934">
        <ele>1214</ele>
        <time>2016-04-28T06:12:13Z</time>
      </trkpt>
      <trkpt lat="46.42855" lon="5.98839">
        <ele>1209</ele>
        <time>2016-04-28T06:14:13Z</time>
      </trkpt>
      <trkpt lat="46.42656" lon="5.98728">
        <ele>1195</ele>
        <time>2016-04-28T06:16:13Z</time>
      </trkpt>
      <trkpt lat="46.42481" lon="5.98553">
        <ele>1179</ele>
        <time>2016-04-28T06:18:13Z</time>
      </trkpt>
      <trkpt lat="46.42421" lon="5.98321">
        <ele>1169</ele>
        <time>2016-04-28T06:20:13Z</time>
      </trkpt>
      <trkpt lat="46.42282" lon="5.98182">
        <ele>1167</ele>
        <time>2016-04-28T06:22:13Z</time>
      </trkpt>
      <trkpt lat="46.42174" lon="5.98018">
        <ele>1162</ele>
        <time>2016-04-28T06:24:13Z</time>
      </trkpt>
      <trkpt lat="46.42129" lon="5.97885">
        <ele>1160</ele>
        <time>2016-04-28T06:26:13Z</time>
      </trkpt>
      <trkpt lat="46.41988" lon="5.97654">
        <ele>1169</ele>
        <time>2016-04-28T06:28:13Z</time>
      </trkpt>
      <trkpt lat="46.4197" lon="5.97796">
        <ele>1185</ele>
        <time>2016-04-28T06:30:13Z</time>
      </trkpt>
      <trkpt lat="46.41994" lon="5.97896">
        <ele>1187</ele>
        <time>2016-04-28T06:32:13Z</time>
      </trkpt>
      <trkpt lat="46.41959" lon="5.97997">
        <ele>1200</ele>
        <time>2016-04-28T06:34:13Z</time>
      </trkpt>
      <trkpt lat="46.41942" lon="5.98094">
        <ele>1202</ele>
        <time>2016-04-28T06:36:13Z</time>
      </trkpt>
      <trkpt lat="46.41874" lon="5.98252">
        <ele>1208</ele>
        <time>2016-04-28T06:38:13Z</time>
      </trkpt>
      <trkpt lat="46.41793" lon="5.9826">
        <ele>1208</ele>
        <time>2016-04-28T06:40:13Z</time>
      </trkpt>
      <trkpt lat="46.41729" lon="5.98405">
        <ele>1233</ele>
        <time>2016-04-28T06:42:13Z</time>
      </trkpt>
      <trkpt lat="46.41643" lon="5.98432">
        <ele>1242</ele>
        <time>2016-04-28T06:44:13Z</time>
      </trkpt>
      <trkpt lat="46.41499" lon="5.98696">
        <ele>1237</ele>
        <time>2016-04-28T06:46:13Z</time>
      </trkpt>
      <trkpt lat="46.414" lon="5.98709">
        <ele>1232</ele>
        <time>2016-04-28T06:48:13Z</time>
      </trkpt>
      <trkpt lat="46.41338" lon="5.98815">
        <ele>1214</ele>
        <time>2016-04-28T06:50:13Z</time>
      </trkpt>
      <trkpt lat="46.41261" lon="5.98836">
        <ele>1205</ele>
        <time>2016-04-28T06:52:13Z</time>
      </trkpt>
      <trkpt lat="46.41186" lon="5.98929">
        <ele>1192</ele>
        <time>2016-04-28T06:54:13Z</time>
      </trkpt>
      <trkpt lat="46.41105" lon="5.9893">
        <ele>1187</ele>
        <time>2016-04-28T06:56:13Z</time>
      </trkpt>
      <trkpt lat="46.4106" lon="5.9892">
        <ele>1187</ele>
        <time>2016-04-28T06:58:13Z</time>
      </trkpt>
      <trkpt lat="46.409" lon="5.98708">
        <ele>1220</ele>
        <time>2016-04-28T07:00:13Z</time>
      </trkpt>
      <trkpt lat="46.40726" lon="5.98533">
        <ele>1225</ele>
        <time>2016-04-28T07:02:13Z</time>
      </trkpt>
      <trkpt lat="46.40633" lon="5.98332">
        <ele>1233</ele>
        <time>2016-04-28T07:04:13Z</time>
      </trkpt>
      <trkpt lat="46.40572" lon="5.98262">
        <ele>1230</ele>
        <time>2016-04-28T07:06:13Z</time>
      </trkpt>
      <trkpt lat="46.40545" lon="5.98143">
        <ele>1227</ele>
        <time>2016-04-28T07:08:13Z</time>
      </trkpt>
      <trkpt lat="46.40415" lon="5.97959">
        <ele>1230</ele>
        <time>2016-04-28T07:10:13Z</time>
      </trkpt>
      <trkpt lat="46.40351" lon="5.97864">
        <ele>1229</ele>
        <time>2016-04-28T07:12:13Z</time>
      </trkpt>
      <trkpt lat="46.40241" lon="5.97772">
        <ele>1219</ele>
        <time>2016-04-28T07:14:13Z</time>
      </trkpt>
      <trkpt lat="46.40117" lon="5.97568">
        <ele>1216</ele>
        <time>2016-04-28T07:16:13Z</time>
      </trkpt>
      <trkpt lat="46.39945" lon="5.97322">
        <ele>1202</ele>
        <time>2016-04-28T07:18:13Z</time>
      </trkpt>
      <trkpt lat="46.39682" lon="5.9694">
        <ele>1198</ele>
        <time>2016-04-28T07:20:13Z</time>
      </trkpt>
      <trkpt lat="46.39658" lon="5.96867">
        <ele>1188</ele>
        <time>2016-04-28T07:22:13Z</time>
      </trkpt>
      <trkpt lat="46.39669" lon="5.96783">
        <ele>1176</ele>
        <time>2016-04-28T07:24:13Z</time>
      </trkpt>
      <trkpt lat="46.39641" lon="5.9669">
        <ele>1163</ele>
        <time>2016-04-28T07:26:13Z</time>
      </trkpt>
      <trkpt lat="46.39648" lon="5.96612">
        <ele>1156</ele>
        <time>2016-04-28T07:28:13Z</time>
      </trkpt>
      <trkpt lat="46.39561" lon="5.96665">
        <ele>1158</ele>
        <time>2016-04-28T07:30:13Z</time>
      </trkpt>
      <trkpt lat="46.39458" lon="5.96788">
        <ele>1160</ele>
        <time>2016-04-28T07:32:13Z</time>
      </trkpt>
      <trkpt lat="46.39334" lon="5.96839">
        <ele>1153</ele>
        <time>2016-04-28T07:34:13Z</time>
      </trkpt>
      <trkpt lat="46.39217" lon="5.96857">
        <ele>1152</ele>
        <time>2016-04-28T07:36:13Z</time>
      </trkpt>
      <trkpt lat="46.39108" lon="5.96863">
        <ele>1158</ele>
        <time>2016-04-28T07:38:13Z</time>
      </trkpt>
      <trkpt lat="46.39015" lon="5.96843">
        <ele>1174</ele>
        <time>2016-04-28T07:40:13Z</time>
      </trkpt>
      <trkpt lat="46.39012" lon="5.96934">
        <ele>1180</ele>
        <time>2016-04-28T07:42:13Z</time>
      </trkpt>
      <trkpt lat="46.39019" lon="5.96993">
        <ele>1186</ele>
        <time>2016-04-28T07:44:13Z</time>
      </trkpt>
      <trkpt lat="46.38914" lon="5.96889">
        <ele>1187</ele>
        <time>2016-04-28T07:46:13Z</time>
      </trkpt>
      <trkpt lat="46.38846" lon="5.9676">
        <ele>1177</ele>
        <time>2016-04-28T07:48:13Z</time>
      </trkpt>
      <trkpt lat="46.38823" lon="5.96642">
        <ele>1177</ele>
        <time>2016-04-28T07:50:13Z</time>
      </trkpt>
      <trkpt lat="46.38706" lon="5.96478">
        <ele>1162</ele>
        <time>2016-04-28T07:52:13Z</time>
      </trkpt>
      <trkpt lat="46.38682" lon="5.96398">
        <ele>1160</ele>
        <time>2016-04-28T07:54:13Z</time>
      </trkpt>
      <trkpt lat="46.38574" lon="5.96261">
        <ele>1158</ele>
        <time>2016-04-28T07:56:13Z</time>
      </trkpt>
      <trkpt lat="46.38486" lon="5.96183">
        <ele>1144</ele>
        <time>2016-04-28T07:58:13Z</time>
      </trkpt>
      <trkpt lat="46.38398" lon="5.96138">
        <ele>1131</ele>
        <time>2016-04-28T08:00:13Z</time>
      </trkpt>
      <trkpt lat="46.38369" lon="5.96039">
        <ele>1138</ele>
        <time>2016-04-28T08:02:13Z</time>
      </trkpt>
      <trkpt lat="46.38324" lon="5.96042">
        <ele>1146</ele>
        <time>2016-04-28T08:04:13Z</time>
      </trkpt>
      <trkpt lat="46.38314" lon="5.95925">
        <ele>1158</ele>
        <time>2016-04-28T08:06:13Z</time>
      </trkpt>
      <trkpt lat="46.3829" lon="5.95969">
        <ele>1161</ele>
        <time>2016-04-28T08:08:13Z</time>
      </trkpt>
      <trkpt lat="46.38277" lon="5.95831">
        <ele>1173</ele>
        <time>2016-04-28T08:10:13Z</time>
      </trkpt>
      <trkpt lat="46.38256" lon="5.95765">
        <ele>1184</ele>
        <time>2016-04-28T08:12:13Z</time>
      </trkpt>
      <trkpt lat="46.38213" lon="5.95866">
        <ele>1185</ele>
        <time>2016-04-28T08:14:13Z</time>
      </trkpt>
      <trkpt lat="46.3817" lon="5.95922">
        <ele>1187</ele>
        <time>2016-04-28T08:16:13Z</time>
      </trkpt>
      <trkpt lat="46.38103" lon="5.96047">
        <ele>1181</ele>
        <time>2016-04-28T08:18:13Z</time>
      </trkpt>
      <trkpt lat="46.38067" lon="5.96201">
        <ele>1182</ele>
        <time>2016-04-28T08:20:13Z</time>
      </trkpt>
      <trkpt lat="46.37931" lon="5.96517">
        <ele>1178</ele>
        <time>2016-04-28T08:22:13Z</time>
      </trkpt>
      <trkpt lat="46.37869" lon="5.96611">
        <ele>1176</ele>
        <time>2016-04-28T08:24:13Z</time>
      </trkpt>
      <trkpt lat="46.3766" lon="5.96798">
        <ele>1180</ele>
        <time>2016-04-28T08:26:13Z</time>
      </trkpt>
      <trkpt lat="46.37564" lon="5.96987">
        <ele>1175</ele>
        <time>2016-04-28T08:28:13Z</time>
      </trkpt>
      <trkpt lat="46.37522" lon="5.9718">
        <ele>1175</ele>
        <time>2016-04-28T08:30:13Z</time>
      </trkpt>
      <trkpt lat="46.37463" lon="5.97345">
        <ele>1174</ele>
        <time>2016-04-28T08:32:13Z</time>
      </trkpt>
      <trkpt lat="46.37433" lon="5.97564">
        <ele>1173</ele>
        <time>2016-04-28T08:34:13Z</time>
      </trkpt>
      <trkpt lat="46.37438" lon="5.97571">
        <ele>1172</ele>
        <time>2016-04-28T08:36:13Z</time>
      </trkpt>
      <trkpt lat="46.37347" lon="5.97454">
        <ele>1171</ele>
        <time>2016-04-28T08:38:13Z</time>
      </trkpt>
      <trkpt lat="46.37315" lon="5.97322">
        <ele>1168</ele>
        <time>2016-04-28T08:40:13Z</time>
      </trkpt>
      <trkpt lat="46.37146" lon="5.97115">
        <ele>1171</ele>
        <time>2016-04-28T08:42:13Z</time>
      </trkpt>
      <trkpt lat="46.37026" lon="5.96919">
        <ele>1168</ele>
        <time>2016-04-28T08:44:13Z</time>
      </trkpt>
      <trkpt lat="46.36882" lon="5.96772">
        <ele>1164</ele>
        <time>2016-04-28T08:46:13Z</time>
      </trkpt>
      <trkpt lat="46.36807" lon="5.96449">
        <ele>1165</ele>
        <time>2016-04-28T08:48:13Z</time>
      </trkpt>
      <trkpt lat="46.36788" lon="5.96343">
        <ele>1165</ele>
        <time>2016-04-28T08:50:13Z</time>
      </trkpt>
      <trkpt lat="46.36729" lon="5.96203">
        <ele>1172</ele>
        <time>2016-04-28T08:52:13Z</time>
      </trkpt>
      <trkpt lat="46.36655" lon="5.9612">
        <ele>1179</ele>
        <time>2016-04-28T08:54:13Z</time>
      </trkpt>
      <trkpt lat="46.36506" lon="5.95993">
        <ele>1192</ele>
        <time>2016-04-28T08:56:13Z</time>
      </trkpt>
      <trkpt lat="46.3642" lon="5.95883">
        <ele>1204</ele>
        <time>2016-04-28T08:58:13Z</time>
      </trkpt>
      <trkpt lat="46.36373" lon="5.95808">
        <ele>1214</ele>
        <time>2016-04-28T09:00:13Z</time>
      </trkpt>
      <trkpt lat="46.36389" lon="5.95725">
        <ele>1217</ele>
        <time>2016-04-28T09:02:13Z</time>
      </trkpt>
      <trkpt lat="46.36435" lon="5.95682">
        <ele>1212</ele>
        <time>2016-04-28T09:04:13Z</time>
      </trkpt>
      <trkpt lat="46.36472" lon="5.95652">
        <ele>1210</ele>
        <time>2016-04-28T09:06:13Z</time>
      </trkpt>
      <trkpt lat="46.36367" lon="5.95567">
        <ele>1226</ele>
        <time>2016-04-28T09:08:13Z</time>
      </trkpt>
      <trkpt lat="46.36113" lon="5.95492">
        <ele>1237</ele>
        <time>2016-04-28T09:10:13Z</time>
      </trkpt>
      <trkpt lat="46.35999" lon="5.95393">
        <ele>1245</ele>
        <time>2016-04-28T09:12:13Z</time>
      </trkpt>
      <trkpt lat="46.35988" lon="5.95288">
        <ele>1262</ele>
        <time>2016-04-28T09:14:13Z</time>
      </trkpt>
      <trkpt lat="46.35782" lon="5.95132">
        <ele>1269</ele>
        <time>2016-04-28T09:16:13Z</time>
      </trkpt>
      <trkpt lat="46.35665" lon="5.94994">
        <ele>1284</ele>
        <time>2016-04-28T09:18:13Z</time>
      </trkpt>
      <trkpt lat="46.35517" lon="5.94808">
        <ele>1294</ele>
        <time>2016-04-28T09:20:13Z</time>
      </trkpt>
      <trkpt lat="46.3545" lon="5.94667">
        <ele>1308</ele>
        <time>2016-04-28T09:22:13Z</time>
      </trkpt>
      <trkpt lat="46.35484" lon="5.94572">
        <ele>1313</ele>
        <time>2016-04-28T09:24:13Z</time>
      </trkpt>
      <trkpt lat="46.35461" lon="5.94473">
        <ele>1310</ele>
        <time>2016-04-28T09:26:13Z</time>
      </trkpt>
      <trkpt lat="46.35337" lon="5.944">
        <ele>1306</ele>
        <time>2016-04-28T09:28:13Z</time>
      </trkpt>
      <trkpt lat="46.35223" lon="5.94294">
        <ele>1307</ele>
        <time>2016-04-28T09:30:13Z</time>
      </trkpt>
      <trkpt lat="46.3519" lon="5.94214">
        <ele>1308</ele>
        <time>2016-04-28T09:32:13Z</time>
      </trkpt>
      <trkpt lat="46.3518" lon="5.94077">
        <ele>1305</ele>
        <time>2016-04-28T09:34:13Z</time>
      </trkpt>
      <trkpt lat="46.35183" lon="5.93986">
        <ele>1302</ele>
        <time>2016-04-28T09:36:13Z</time>
      </trkpt>
      <trkpt lat="46.35222" lon="5.93904">
        <ele>1306</ele>
        <time>2016-04-28T09:38:13Z</time>
      </trkpt>
      <trkpt lat="46.35121" lon="5.93806">
        <ele>1305</ele>
        <time>2016-04-28T09:40:13Z</time>
      </trkpt>
      <trkpt lat="46.35045" lon="5.93652">
        <ele>1317</ele>
        <time>2016-04-28T09:42:13Z</time>
      </trkpt>
      <trkpt lat="46.34945" lon="5.93541">
        <ele>1320</ele>
        <time>2016-04-28T09:44:13Z</time>
      </trkpt>
      <trkpt lat="46.3474" lon="5.93339">
        <ele>1302</ele>
        <time>2016-04-28T09:46:13Z</time>
      </trkpt>
      <trkpt lat="46.34591" lon="5.93199">
        <ele>1293</ele>
        <time>2016-04-28T09:48:13Z</time>
      </trkpt>
      <trkpt lat="46.34468" lon="5.93106">
        <ele>1282</ele>
        <time>2016-04-28T09:50:13Z</time>
      </trkpt>
      <trkpt lat="46.3442" lon="5.93064">
        <ele>1278</ele>
        <time>2016-04-28T09:52:13Z</time>
      </trkpt>
      <trkpt lat="46.34427" lon="5.92987">
        <ele>1282</ele>
        <time>2016-04-28T09:54:13Z</time>
      </trkpt>
      <trkpt lat="46.34442" lon="5.92923">
        <ele>1287</ele>
        <time>2016-04-28T09:56:13Z</time>
      </trkpt>
      <trkpt lat="46.34422" lon="5.9285">
        <ele>1282</ele>
        <time>2016-04-28T09:58:13Z</time>
      </trkpt>
      <trkpt lat="46.34322" lon="5.92733">
        <ele>1270</ele>
        <time>2016-04-28T10:00:13Z</time>
      </trkpt>
      <trkpt lat="46.3439" lon="5.92718">
        <ele>1270</ele>
        <time>2016-04-28T10:02:13Z</time>
      </trkpt>
      <trkpt lat="46.34397" lon="5.9264">
        <ele>1266</ele>
        <time>2016-04-28T10:04:13Z</time>
      </trkpt>
      <trkpt lat="46.34409" lon="5.9255">
        <ele>1266</ele>
        <time>2016-04-28T10:06:13Z</time>
      </trkpt>
      <trkpt lat="46.34459" lon="5.92404">
        <ele>1266</ele>
        <time>2016-04-28T10:08:13Z</time>
      </trkpt>
      <trkpt lat="46.34522" lon="5.92252">
        <ele>1267</ele>
        <time>2016-04-28T10:10:13Z</time>
      </trkpt>
      <trkpt lat="46.34603" lon="5.92264">
        <ele>1268</ele>
        <time>2016-04-28T10:12:13Z</time>
      </trkpt>
      <trkpt lat="46.34651" lon="5.92176">
        <ele>1257</ele>
        <time>2016-04-28T10:14:13Z</time>
      </trkpt>
      <trkpt lat="46.34722" lon="5.92187">
        <ele>1254</ele>
        <time>2016-04-28T10:16:13Z</time>
      </trkpt>
      <trkpt lat="46.34787" lon="5.92133">
        <ele>1236</ele>
        <time>2016-04-28T10:18:13Z</time>
      </trkpt>
      <trkpt lat="46.34864" lon="5.92131">
        <ele>1230</ele>
        <time>2016-04-28T10:20:13Z</time>
      </trkpt>
      <trkpt lat="46.34933" lon="5.92064">
        <ele>1216</ele>
        <time>2016-04-28T10:22:13Z</time>
      </trkpt>
      <trkpt lat="46.35079" lon="5.92171">
        <ele>1220</ele>
        <time>2016-04-28T10:24:13Z</time>
      </trkpt>
      <trkpt lat="46.35197" lon="5.92121">
        <ele>1197</ele>
        <time>2016-04-28T10:26:13Z</time>
      </trkpt>
      <trkpt lat="46.35276" lon="5.92067">
        <ele>1197</ele>
        <time>2016-04-28T10:28:13Z</time>
      </trkpt>
      <trkpt lat="46.35298" lon="5.92062">
        <ele>1198</ele>
        <time>2016-04-28T10:30:13Z</time>
      </trkpt>
      <trkpt lat="46.35293" lon="5.91938">
        <ele>1198</ele>
        <time>2016-04-28T10:32:13Z</time>
      </trkpt>
      <trkpt lat="46.35175" lon="5.9182">
        <ele>1197</ele>
        <time>2016-04-28T10:34:13Z</time>
      </trkpt>
      <trkpt lat="46.35102" lon="5.91711">
        <ele>1197</ele>
        <time>2016-04-28T10:36:13Z</time>
      </trkpt>
      <trkpt lat="46.3498" lon="5.9158">
        <ele>1195</ele>
        <time>2016-04-28T10:38:13Z</time>
      </trkpt>
      <trkpt lat="46.34809" lon="5.91295">
        <ele>1198</ele>
        <time>2016-04-28T10:40:13Z</time>
      </trkpt>
      <trkpt lat="46.34741" lon="5.90875">
        <ele>1210</ele>
        <time>2016-04-28T10:42:13Z</time>
      </trkpt>
      <trkpt lat="46.3477" lon="5.90688">
        <ele>1197</ele>
        <time>2016-04-28T10:44:13Z</time>
      </trkpt>
      <trkpt lat="46.34818" lon="5.90574">
        <ele>1188</ele>
        <time>2016-04-28T10:46:13Z</time>
      </trkpt>
      <trkpt lat="46.34823" lon="5.90438">
        <ele>1180</ele>
        <time>2016-04-28T10:48:13Z</time>
      </trkpt>
      <trkpt lat="46.3475" lon="5.90322">
        <ele>1178</ele>
        <time>2016-04-28T10:50:13Z</time>
      </trkpt>
      <trkpt lat="46.34669" lon="5.90324">
        <ele>1178</ele>
        <time>2016-04-28T10:52:13Z</time>
      </trkpt>
      <trkpt lat="46.34571" lon="5.90434">
        <ele>1181</ele>
        <time>2016-04-28T10:54:13Z</time>
      </trkpt>
      <trkpt lat="46.34504" lon="5.9041">
        <ele>1181</ele>
        <time>2016-04-28T10:56:13Z</time>
      </trkpt>
      <trkpt lat="46.34435" lon="5.90315">
        <ele>1176</ele>
        <time>2016-04-28T10:58:13Z</time>
      </trkpt>
      <trkpt lat="46.34385" lon="5.90188">
        <ele>1169</ele>
        <time>2016-04-28T11:00:13Z</time>
      </trkpt>
      <trkpt lat="46.34357" lon="5.90076">
        <ele>1164</ele>
        <time>2016-04-28T11:02:13Z</time>
      </trkpt>
      <trkpt lat="46.34318" lon="5.90008">
        <ele>1159</ele>
        <time>2016-04-28T11:04:13Z</time>
      </trkpt>
      <trkpt lat="46.34251" lon="5.89997">
        <ele>1151</ele>
        <time>2016-04-28T11:06:13Z</time>
      </trkpt>
      <trkpt lat="46.3425" lon="5.9003">
        <ele>1150</ele>
        <time>2016-04-28T11:08:13Z</time>
      </trkpt>
      <trkpt lat="46.34109" lon="5.90066">
        <ele>1142</ele>
        <time>2016-04-28T11:10:13Z</time>
      </trkpt>
      <trkpt lat="46.33985" lon="5.90155">
        <ele>1142</ele>
        <time>2016-04-28T11:12:13Z</time>
      </trkpt>
      <trkpt lat="46.33922" lon="5.90158">
        <ele>1140</ele>
        <time>2016-04-28T11:14:13Z</time>
      </trkpt>
      <trkpt lat="46.33853" lon="5.90062">
        <ele>1134</ele>
        <time>2016-04-28T11:16:13Z</time>
      </trkpt>
      <trkpt lat="46.3381" lon="5.89981">
        <ele>1134</ele>
        <time>2016-04-28T11:18:13Z</time>
      </trkpt>
      <trkpt lat="46.33765" lon="5.89991">
        <ele>1130</ele>
        <time>2016-04-28T11:20:13Z</time>
      </trkpt>
      <trkpt lat="46.33686" lon="5.89928">
        <ele>1128</ele>
        <time>2016-04-28T11:22:13Z</time>
      </trkpt>
      <trkpt lat="46.3363" lon="5.89846">
        <ele>1126</ele>
        <time>2016-04-28T11:24:13Z</time>
      </trkpt>
      <trkpt lat="46.33577" lon="5.89797">
        <ele>1122</ele>
        <time>2016-04-28T11:26:13Z</time>
      </trkpt>
      <trkpt lat="46.33535" lon="5.8984">
        <ele>1119</ele>
        <time>2016-04-28T11:28:13Z</time>
      </trkpt>
      <trkpt lat="46.33396" lon="5.89974">
        <ele>1118</ele>
        <time>2016-04-28T11:30:13Z</time>
      </trkpt>
      <trkpt lat="46.33224" lon="5.90157">
        <ele>1122</ele>
        <time>2016-04-28T11:32:13Z</time>
      </trkpt>
      <trkpt lat="46.33125" lon="5.9043">
        <ele>1127</ele>
        <time>2016-04-28T11:34:13Z</time>
      </trkpt>
      <trkpt lat="46.32981" lon="5.90278">
        <ele>1116</ele>
        <time>2016-04-28T11:36:13Z</time>
      </trkpt>
      <trkpt lat="46.32755" lon="5.90023">
        <ele>1123</ele>
        <time>2016-04-28T11:38:13Z</time>
      </trkpt>
      <trkpt lat="46.32619" lon="5.8991">
        <ele>1133</ele>
        <time>2016-04-28T11:40:13Z</time>
      </trkpt>
      <trkpt lat="46.32495" lon="5.89856">
        <ele>1142</ele>
        <time>2016-04-28T11:42:13Z</time>
      </trkpt>
      <trkpt lat="46.32432" lon="5.89703">
        <ele>1152</ele>
        <time>2016-04-28T11:44:13Z</time>
      </trkpt>
      <trkpt lat="46.3242" lon="5.89526">
        <ele>1153</ele>
        <time>2016-04-28T11:46:13Z</time>
      </trkpt>
      <trkpt lat="46.32488" lon="5.89355">
        <ele>1153</ele>
        <time>2016-04-28T11:48:13Z</time>
      </trkpt>
      <trkpt lat="46.32512" lon="5.89298">
        <ele>1151</ele>
        <time>2016-04-28T11:50:13Z</time>
      </trkpt>
      <trkpt lat="46.32499" lon="5.89141">
        <ele>1145</ele>
        <time>2016-04-28T11:52:13Z</time>
      </trkpt>
      <trkpt lat="46.32561" lon="5.89022">
        <ele>1150</ele>
        <time>2016-04-28T11:54:13Z</time>
      </trkpt>
      <trkpt lat="46.32629" lon="5.8887">
        <ele>1155</ele>
        <time>2016-04-28T11:56:13Z</time>
      </trkpt>
      <trkpt lat="46.32795" lon="5.88608">
        <ele>1137</ele>
        <time>2016-04-28T11:58:13Z</time>
      </trkpt>
      <trkpt lat="46.32836" lon="5.88448">
        <ele>1152</ele>
        <time>2016-04-28T12:00:13Z</time>
      </trkpt>
      <trkpt lat="46.32816" lon="5.88369">
        <ele>1161</ele>
        <time>2016-04-28T12:02:13Z</time>
      </trkpt>
      <trkpt lat="46.32844" lon="5.88325">
        <ele>1168</ele>
        <time>2016-04-28T12:04:13Z</time>
      </trkpt>
      <trkpt lat="46.32947" lon="5.88365">
        <ele>1162</ele>
        <time>2016-04-28T12:06:13Z</time>
      </trkpt>
      <trkpt lat="46.33065" lon="5.8834">
        <ele>1175</ele>
        <time>2016-04-28T12:08:13Z</time>
      </trkpt>
      <trkpt lat="46.33129" lon="5.88292">
        <ele>1185</ele>
        <time>2016-04-28T12:10:13Z</time>
      </trkpt>
      <trkpt lat="46.33014" lon="5.88232">
        <ele>1191</ele>
        <time>2016-04-28T12:12:13Z</time>
      </trkpt>
      <trkpt lat="46.32941" lon="5.88124">
        <ele>1199</ele>
        <time>2016-04-28T12:14:13Z</time>
      </trkpt>
      <trkpt lat="46.32937" lon="5.87967">
        <ele>1203</ele>
        <time>2016-04-28T12:16:13Z</time>
      </trkpt>
      <trkpt lat="46.32714" lon="5.87894">
        <ele>1208</ele>
        <time>2016-04-28T12:18:13Z</time>
      </trkpt>
      <trkpt lat="46.32648" lon="5.87825">
        <ele>1207</ele>
        <time>2016-04-28T12:20:13Z</time>
      </trkpt>
      <trkpt lat="46.32549" lon="5.87832">
        <ele>1212</ele>
        <time>2016-04-28T12:22:13Z</time>
      </trkpt>
      <trkpt lat="46.32467" lon="5.87852">
        <ele>1215</ele>
        <time>2016-04-28T12:24:13Z</time>
      </trkpt>
      <trkpt lat="46.32389" lon="5.87925">
        <ele>1208</ele>
        <time>2016-04-28T12:26:13Z</time>
      </trkpt>
      <trkpt lat="46.32251" lon="5.87877">
        <ele>1211</ele>
        <time>2016-04-28T12:28:13Z</time>
      </trkpt>
      <trkpt lat="46.31878" lon="5.87418">
        <ele>1225</ele>
        <time>2016-04-28T12:30:13Z</time>
      </trkpt>
      <trkpt lat="46.3168" lon="5.87262">
        <ele>1215</ele>
        <time>2016-04-28T12:32:13Z</time>
      </trkpt>
      <trkpt lat="46.31582" lon="5.87216">
        <ele>1211</ele>
        <time>2016-04-28T12:34:13Z</time>
      </trkpt>
      <trkpt lat="46.31554" lon="5.87267">
        <ele>1208</ele>
        <time>2016-04-28T12:36:13Z</time>
      </trkpt>
      <trkpt lat="46.31404" lon="5.8714">
        <ele>1194</ele>
        <time>2016-04-28T12:38:13Z</time>
      </trkpt>
      <trkpt lat="46.31253" lon="5.86929">
        <ele>1184</ele>
        <time>2016-04-28T12:40:13Z</time>
      </trkpt>
      <trkpt lat="46.31101" lon="5.86769">
        <ele>1186</ele>
        <time>2016-04-28T12:42:13Z</time>
      </trkpt>
      <trkpt lat="46.30995" lon="5.86697">
        <ele>1187</ele>
        <time>2016-04-28T12:44:13Z</time>
      </trkpt>
      <trkpt lat="46.30828" lon="5.8657">
        <ele>1184</ele>
        <time>2016-04-28T12:46:13Z</time>
      </trkpt>
      <trkpt lat="46.30729" lon="5.86427">
        <ele>1186</ele>
        <time>2016-04-28T12:48:13Z</time>
      </trkpt>
      <trkpt lat="46.306" lon="5.86373">
        <ele>1165</ele>
        <time>2016-04-28T12:50:13Z</time>
      </trkpt>
      <trkpt lat="46.30489" lon="5.86307">
        <ele>1143</ele>
        <time>2016-04-28T12:52:13Z</time>
      </trkpt>
      <trkpt lat="46.30416" lon="5.86354">
        <ele>1129</ele>
        <time>2016-04-28T12:54:13Z</time>
      </trkpt>
      <trkpt lat="46.3042" lon="5.86231">
        <ele>1123</ele>
        <time>2016-04-28T12:56:13Z</time>
      </trkpt>
      <trkpt lat="46.30389" lon="5.8621">
        <ele>1126</ele>
        <time>2016-04-28T12:58:13Z</time>
      </trkpt>
      <trkpt lat="46.30343" lon="5.86246">
        <ele>1126</ele>
        <time>2016-04-28T13:00:13Z</time>
      </trkpt>
      <trkpt lat="46.30263" lon="5.86189">
        <ele>1137</ele>
        <time>2016-04-28T13:02:13Z</time>
      </trkpt>
      <trkpt lat="46.30226" lon="5.86219">
        <ele>1140</ele>
        <time>2016-04-28T13:04:13Z</time>
      </trkpt>
      <trkpt lat="46.30174" lon="5.86157">
        <ele>1151</ele>
        <time>2016-04-28T13:06:13Z</time>
      </trkpt>
      <trkpt lat="46.3013" lon="5.86128">
        <ele>1158</ele>
        <time>2016-04-28T13:08:13Z</time>
      </trkpt>
      <trkpt lat="46.29953" lon="5.86312">
        <ele>1174</ele>
        <time>2016-04-28T13:10:13Z</time>
      </trkpt>
      <trkpt lat="46.29838" lon="5.86389">
        <ele>1179</ele>
        <time>2016-04-28T13:12:13Z</time>
      </trkpt>
      <trkpt lat="46.29759" lon="5.86338">
        <ele>1186</ele>
        <time>2016-04-28T13:14:13Z</time>
      </trkpt>
      <trkpt lat="46.29715" lon="5.86296">
        <ele>1188</ele>
        <time>2016-04-28T13:16:13Z</time>
      </trkpt>
      <trkpt lat="46.2972" lon="5.86134">
        <ele>1182</ele>
        <time>2016-04-28T13:18:13Z</time>
      </trkpt>
      <trkpt lat="46.29777" lon="5.85904">
        <ele>1172</ele>
        <time>2016-04-28T13:20:13Z</time>
      </trkpt>
      <trkpt lat="46.29817" lon="5.85757">
        <ele>1167</ele>
        <time>2016-04-28T13:22:13Z</time>
      </trkpt>
      <trkpt lat="46.29798" lon="5.85645">
        <ele>1164</ele>
        <time>2016-04-28T13:24:13Z</time>
      </trkpt>
      <trkpt lat="46.29665" lon="5.85591">
        <ele>1168</ele>
        <time>2016-04-28T13:26:13Z</time>
      </trkpt>
      <trkpt lat="46.29557" lon="5.85571">
        <ele>1172</ele>
        <time>2016-04-28T13:28:13Z</time>
      </trkpt>
      <trkpt lat="46.29449" lon="5.85441">
        <ele>1180</ele>
        <time>2016-04-28T13:30:13Z</time>
      </trkpt>
      <trkpt lat="46.29311" lon="5.8538">
        <ele>1176</ele>
        <time>2016-04-28T13:32:13Z</time>
      </trkpt>
      <trkpt lat="46.29167" lon="5.85241">
        <ele>1171</ele>
        <time>2016-04-28T13:34:13Z</time>
      </trkpt>
      <trkpt lat="46.28993" lon="5.85184">
        <ele>1173</ele>
        <time>2016-04-28T13:36:13Z</time>
      </trkpt>
      <trkpt lat="46.28854" lon="5.85156">
        <ele>1179</ele>
        <time>2016-04-28T13:38:13Z</time>
      </trkpt>
      <trkpt lat="46.28777" lon="5.85053">
        <ele>1176</ele>
        <time>2016-04-28T13:40:13Z</time>
      </trkpt>
      <trkpt lat="46.28667" lon="5.84942">
        <ele>1170</ele>
        <time>2016-04-28T13:42:13Z</time>
      </trkpt>
      <trkpt lat="46.2855" lon="5.84792">
        <ele>1164</ele>
        <time>2016-04-28T13:44:13Z</time>
      </trkpt>
      <trkpt lat="46.2855" lon="5.84798">
        <ele>1164</ele>
        <time>2016-04-28T13:46:13Z</time>
      </trkpt>
      <trkpt lat="46.28524" lon="5.84926">
        <ele>1167</ele>
        <time>2016-04-28T13:48:13Z</time>
      </trkpt>
      <trkpt lat="46.28427" lon="5.85147">
        <ele>1183</ele>
        <time>2016-04-28T13:50:13Z</time>
      </trkpt>
      <trkpt lat="46.28358" lon="5.85344">
        <ele>1200</ele>
        <time>2016-04-28T13:52:13Z</time>
      </trkpt>
      <trkpt lat="46.28313" lon="5.85341">
        <ele>1197</ele>
        <time>2016-04-28T13:54:13Z</time>
      </trkpt>
      <trkpt lat="46.28229" lon="5.85271">
        <ele>1188</ele>
        <time>2016-04-28T13:56:13Z</time>
      </trkpt>
      <trkpt lat="46.28319" lon="5.85582">
        <ele>1215</ele>
        <time>2016-04-28T13:58:13Z</time>
      </trkpt>
      <trkpt lat="46.2832" lon="5.85693">
        <ele>1228</ele>
        <time>2016-04-28T14:00:13Z</time>
      </trkpt>
      <trkpt lat="46.28212" lon="5.85699">
        <ele>1238</ele>
        <time>2016-04-28T14:02:13Z</time>
      </trkpt>
      <trkpt lat="46.28078" lon="5.85658">
        <ele>1238</ele>
        <time>2016-04-28T14:04:13Z</time>
      </trkpt>
      <trkpt lat="46.27947" lon="5.85656">
        <ele>1249</ele>
        <time>2016-04-28T14:06:13Z</time>
      </trkpt>
      <trkpt lat="46.27876" lon="5.85638">
        <ele>1253</ele>
        <time>2016-04-28T14:08:13Z</time>
      </trkpt>
      <trkpt lat="46.27788" lon="5.85723">
        <ele>1255</ele>
        <time>2016-04-28T14:10:13Z</time>
      </trkpt>
      <trkpt lat="46.27679" lon="5.85736">
        <ele>1260</ele>
        <time>2016-04-28T14:12:13Z</time>
      </trkpt>
      <trkpt lat="46.27554" lon="5.85851">
        <ele>1265</ele>
        <time>2016-04-28T14:14:13Z</time>
      </trkpt>
      <trkpt lat="46.27555" lon="5.85968">
        <ele>1271</ele>
        <time>2016-04-28T14:16:13Z</time>
      </trkpt>
      <trkpt lat="46.27602" lon="5.86055">
        <ele>1268</ele>
        <time>2016-04-28T14:18:13Z</time>
      </trkpt>
      <trkpt lat="46.27542" lon="5.8609">
        <ele>1280</ele>
        <time>2016-04-28T14:20:13Z</time>
      </trkpt>
      <trkpt lat="46.27448" lon="5.86084">
        <ele>1285</ele>
        <time>2016-04-28T14:22:13Z</time>
      </trkpt>
      <trkpt lat="46.27386" lon="5.86041">
        <ele>1282</ele>
        <time>2016-04-28T14:24:13Z</time>
      </trkpt>
      <trkpt lat="46.2725" lon="5.86085">
        <ele>1291</ele>
        <time>2016-04-28T14:26:13Z</time>
      </trkpt>
      <trkpt lat="46.27176" lon="5.86132">
        <ele>1298</ele>
        <time>2016-04-28T14:28:13Z</time>
      </trkpt>
      <trkpt lat="46.27091" lon="5.86107">
        <ele>1305</ele>
        <time>2016-04-28T14:30:13Z</time>
      </trkpt>
      <trkpt lat="46.27099" lon="5.86283">
        <ele>1306</ele>
        <time>2016-04-28T14:32:13Z</time>
      </trkpt>
      <trkpt lat="46.2714" lon="5.86428">
        <ele>1294</ele>
        <time>2016-04-28T14:34:13Z</time>
      </trkpt>
      <trkpt lat="46.27215" lon="5.86485">
        <ele>1292</ele>
        <time>2016-04-28T14:36:13Z</time>
      </trkpt>
      <trkpt lat="46.27239" lon="5.86551">
        <ele>1290</ele>
        <time>2016-04-28T14:38:13Z</time>
      </trkpt>
      <trkpt lat="46.2717" lon="5.86605">
        <ele>1297</ele>
        <time>2016-04-28T14:40:13Z</time>
      </trkpt>
      <trkpt lat="46.27068" lon="5.86566">
        <ele>1298</ele>
        <time>2016-04-28T14:42:13Z</time>
      </trkpt>
      <trkpt lat="46.26964" lon="5.86592">
        <ele>1303</ele>
        <time>2016-04-28T14:44:13Z</time>
      </trkpt>
      <trkpt lat="46.26925" lon="5.86667">
        <ele>1297</ele>
        <time>2016-04-28T14:46:13Z</time>
      </trkpt>
      <trkpt lat="46.26957" lon="5.86793">
        <ele>1291</ele>
        <time>2016-04-28T14:48:13Z</time>
      </trkpt>
      <trkpt lat="46.26975" lon="5.8695">
        <ele>1290</ele>
        <time>2016-04-28T14:50:13Z</time>
      </trkpt>
      <trkpt lat="46.26969" lon="5.86982">
        <ele>1287</ele>
        <time>2016-04-28T14:52:13Z</time>
      </trkpt>
      <trkpt lat="46.26899" lon="5.86938">
        <ele>1277</ele>
        <time>2016-04-28T14:54:13Z</time>
      </trkpt>
      <trkpt lat="46.26825" lon="5.86999">
        <ele>1282</ele>
        <time>2016-04-28T14:56:13Z</time>
      </trkpt>
      <trkpt lat="46.26741" lon="5.86954">
        <ele>1290</ele>
        <time>2016-04-28T14:58:13Z</time>
      </trkpt>
      <trkpt lat="46.26616" lon="5.8692">
        <ele>1297</ele>
        <time>2016-04-28T15:00:13Z</time>
      </trkpt>
      <trkpt lat="46.26513" lon="5.869">
        <ele>1292</ele>
        <time>2016-04-28T15:02:13Z</time>
      </trkpt>
      <trkpt lat="46.26395" lon="5.86769">
        <ele>1298</ele>
        <time>2016-04-28T15:04:13Z</time>
      </trkpt>
      <trkpt lat="46.2636" lon="5.86585">
        <ele>1307</ele>
        <time>2016-04-28T15:06:13Z</time>
      </trkpt>
      <trkpt lat="46.26319" lon="5.86472">
        <ele>1311</ele>
        <time>2016-04-28T15:08:13Z</time>
      </trkpt>
      <trkpt lat="46.26319" lon="5.86336">
        <ele>1312</ele>
        <time>2016-04-28T15:10:13Z</time>
      </trkpt>
      <trkpt lat="46.2622" lon="5.86187">
        <ele>1318</ele>
        <time>2016-04-28T15:12:13Z</time>
      </trkpt>
      <trkpt lat="46.26224" lon="5.86038">
        <ele>1310</ele>
        <time>2016-04-28T15:14:13Z</time>
      </trkpt>
      <trkpt lat="46.26185" lon="5.86003">
        <ele>1315</ele>
        <time>2016-04-28T15:16:13Z</time>
      </trkpt>
      <trkpt lat="46.26118" lon="5.85836">
        <ele>1302</ele>
        <time>2016-04-28T15:18:13Z</time>
      </trkpt>
      <trkpt lat="46.26081" lon="5.85736">
        <ele>1293</ele>
        <time>2016-04-28T15:20:13Z</time>
      </trkpt>
      <trkpt lat="46.26001" lon="5.85699">
        <ele>1299</ele>
        <time>2016-04-28T15:22:13Z</time>
      </trkpt>
      <trkpt lat="46.25984" lon="5.85522">
        <ele>1291</ele>
        <time>2016-04-28T15:24:13Z</time>
      </trkpt>
      <trkpt lat="46.25881" lon="5.85503">
        <ele>1310</ele>
        <time>2016-04-28T15:26:13Z</time>
      </trkpt>
      <trkpt lat="46.25764" lon="5.85359">
        <ele>1319</ele>
        <time>2016-04-28T15:28:13Z</time>
      </trkpt>
      <trkpt lat="46.25686" lon="5.85243">
        <ele>1321</ele>
        <time>2016-04-28T15:30:13Z</time>
      </trkpt>
      <trkpt lat="46.25599" lon="5.8516">
        <ele>1325</ele>
        <time>2016-04-28T15:32:13Z</time>
      </trkpt>
      <trkpt lat="46.25524" lon="5.8511">
        <ele>1328</ele>
        <time>2016-04-28T15:34:13Z</time>
      </trkpt>
      <trkpt lat="46.25412" lon="5.85076">
        <ele>1333</ele>
        <time>2016-04-28T15:36:13Z</time>
      </trkpt>
      <trkpt lat="46.25291" lon="5.849">
        <ele>1317</ele>
        <time>2016-04-28T15:38:13Z</time>
      </trkpt>
      <trkpt lat="46.25161" lon="5.84755">
        <ele>1311</ele>
        <time>2016-04-28T15:40:13Z</time>
      </trkpt>
      <trkpt lat="46.25153" lon="5.8456">
        <ele>1308</ele>
        <time>2016-04-28T15:42:13Z</time>
      </trkpt>
      <trkpt lat="46.25084" lon="5.84471">
        <ele>1304</ele>
        <time>2016-04-28T15:44:13Z</time>
      </trkpt>
      <trkpt lat="46.24953" lon="5.84346">
        <ele>1307</ele>
        <time>2016-04-28T15:46:13Z</time>
      </trkpt>
      <trkpt lat="46.24859" lon="5.84177">
        <ele>1278</ele>
        <time>2016-04-28T15:48:13Z</time>
      </trkpt>
      <trkpt lat="46.24763" lon="5.84074">
        <ele>1268</ele>
        <time>2016-04-28T15:50:13Z</time>
      </trkpt>
      <trkpt lat="46.24716" lon="5.84012">
        <ele>1258</ele>
        <time>2016-04-28T15:52:13Z</time>
      </trkpt>
      <trkpt lat="46.24591" lon="5.83953">
        <ele>1261</ele>
        <time>2016-04-28T15:54:13Z</time>
      </trkpt>
      <trkpt lat="46.24454" lon="5.83872">
        <ele>1237</ele>
        <time>2016-04-28T15:56:13Z</time>
      </trkpt>
      <trkpt lat="46.24402" lon="5.83817">
        <ele>1221</ele>
        <time>2016-04-28T15:58:13Z</time>
      </trkpt>
      <trkpt lat="46.24289" lon="5.83842">
        <ele>1224</ele>
        <time>2016-04-28T16:00:13Z</time>
      </trkpt>
      <trkpt lat="46.24247" lon="5.83716">
        <ele>1206</ele>
        <time>2016-04-28T16:02:13Z</time>
      </trkpt>
      <trkpt lat="46.24176" lon="5.83562">
        <ele>1192</ele>
        <time>2016-04-28T16:04:13Z</time>
      </trkpt>
      <trkpt lat="46.24137" lon="5.83514">
        <ele>1181</ele>
        <time>2016-04-28T16:06:13Z</time>
      </trkpt>
      <trkpt lat="46.23945" lon="5.8345">
        <ele>1176</ele>
        <time>2016-04-28T16:08:13Z</time>
      </trkpt>
      <trkpt lat="46.23934" lon="5.83365">
        <ele>1180</ele>
        <time>2016-04-28T16:10:13Z</time>
      </trkpt>
      <trkpt lat="46.24004" lon="5.83285">
        <ele>1169</ele>
        <time>2016-04-28T16:12:13Z</time>
      </trkpt>
      <trkpt lat="46.2393" lon="5.83209">
        <ele>1181</ele>
        <time>2016-04-28T16:14:13Z</time>
      </trkpt>
      <trkpt lat="46.23903" lon="5.83052">
        <ele>1171</ele>
        <time>2016-04-28T16:16:13Z</time>
      </trkpt>
      <trkpt lat="46.23841" lon="5.82873">
        <ele>1166</ele>
        <time>2016-04-28T16:18:13Z</time>
      </trkpt>
      <trkpt lat="46.23836" lon="5.82749">
        <ele>1155</ele>
        <time>2016-04-28T16:20:13Z</time>
      </trkpt>
      <trkpt lat="46.23771" lon="5.8266">
        <ele>1155</ele>
        <time>2016-04-28T16:22:13Z</time>
      </trkpt>
      <trkpt lat="46.23753" lon="5.82523">
        <ele>1149</ele>
        <time>2016-04-28T16:24:13Z</time>
      </trkpt>
      <trkpt lat="46.23667" lon="5.82401">
        <ele>1161</ele>
        <time>2016-04-28T16:26:13Z</time>
      </trkpt>
      <trkpt lat="46.2366" lon="5.82167">
        <ele>1164</ele>
        <time>2016-04-28T16:28:13Z</time>
      </trkpt>
      <trkpt lat="46.23628" lon="5.82054">
        <ele>1167</ele>
        <time>2016-04-28T16:30:13Z</time>
      </trkpt>
      <trkpt lat="46.23619" lon="5.81904">
        <ele>1174</ele>
        <time>2016-04-28T16:32:13Z</time>
      </trkpt>
      <trkpt lat="46.23573" lon="5.81785">
        <ele>1171</ele>
        <time>2016-04-28T16:34:13Z</time>
      </trkpt>
      <trkpt lat="46.23505" lon="5.81657">
        <ele>1165</ele>
        <time>2016-04-28T16:36:13Z</time>
      </trkpt>
      <trkpt lat="46.23446" lon="5.8153">
        <ele>1161</ele>
        <time>2016-04-28T16:38:13Z</time>
      </trkpt>
      <trkpt lat="46.23431" lon="5.81419">
        <ele>1163</ele>
        <time>2016-04-28T16:40:13Z</time>
      </trkpt>
      <trkpt lat="46.23412" lon="5.81314">
        <ele>1168</ele>
        <time>2016-04-28T16:42:13Z</time>
      </trkpt>
      <trkpt lat="46.2332" lon="5.8123">
        <ele>1165</ele>
        <time>2016-04-28T16:44:13Z</time>
      </trkpt>
      <trkpt lat="46.23283" lon="5.81124">
        <ele>1168</ele>
        <time>2016-04-28T16:46:13Z</time>
      </trkpt>
      <trkpt lat="46.23258" lon="5.81044">
        <ele>1169</ele>
        <time>2016-04-28T16:48:13Z</time>
      </trkpt>
      <trkpt lat="46.23301" lon="5.8095">
        <ele>1175</ele>
        <time>2016-04-28T16:50:13Z</time>
      </trkpt>
      <trkpt lat="46.23299" lon="5.80878">
        <ele>1181</ele>
        <time>2016-04-28T16:52:13Z</time>
      </trkpt>
      <trkpt lat="46.23284" lon="5.80786">
        <ele>1190</ele>
        <time>2016-04-28T16:54:13Z</time>
      </trkpt>
      <trkpt lat="46.23336" lon="5.80692">
        <ele>1195</ele>
        <time>2016-04-28T16:56:13Z</time>
      </trkpt>
      <trkpt lat="46.23447" lon="5.80764">
        <ele>1187</ele>
        <time>2016-04-28T16:58:13Z</time>
      </trkpt>
      <trkpt lat="46.23591" lon="5.80773">
        <ele>1186</ele>
        <time>2016-04-28T17:00:13Z</time>
      </trkpt>
      <trkpt lat="46.23676" lon="5.80792">
        <ele>1188</ele>
        <time>2016-04-28T17:02:13Z</time>
      </trkpt>
      <trkpt lat="46.23779" lon="5.80811">
        <ele>1184</ele>
        <time>2016-04-28T17:04:13Z</time>
      </trkpt>
      <trkpt lat="46.23857" lon="5.80752">
        <ele>1185</ele>
        <time>2016-04-28T17:06:13Z</time>
      </trkpt>
      <trkpt lat="46.23845" lon="5.80699">
        <ele>1187</ele>
        <time>2016-04-28T17:08:13Z</time>
      </trkpt>
      <trkpt lat="46.23749" lon="5.80602">
        <ele>1196</ele>
        <time>2016-04-28T17:10:13Z</time>
      </trkpt>
      <trkpt lat="46.2368" lon="5.80507">
        <ele>1198</ele>
        <time>2016-04-28T17:12:13Z</time>
      </trkpt>
      <trkpt lat="46.23625" lon="5.80373">
        <ele>1187</ele>
        <time>2016-04-28T17:14:13Z</time>
      </trkpt>
      <trkpt lat="46.23506" lon="5.80288">
        <ele>1196</ele>
        <time>2016-04-28T17:16:13Z</time>
      </trkpt>
      <trkpt lat="46.23468" lon="5.80201">
        <ele>1187</ele>
        <time>2016-04-28T17:18:13Z</time>
      </trkpt>
      <trkpt lat="46.23472" lon="5.80098">
        <ele>1185</ele>
        <time>2016-04-28T17:20:13Z</time>
      </trkpt>
      <trkpt lat="46.23475" lon="5.79838">
        <ele>1167</ele>
        <time>2016-04-28T17:22:13Z</time>
      </trkpt>
      <trkpt lat="46.2348" lon="5.79663">
        <ele>1165</ele>
        <time>2016-04-28T17:24:13Z</time>
      </trkpt>
      <trkpt lat="46.23454" lon="5.79499">
        <ele>1164</ele>
        <time>2016-04-28T17:26:13Z</time>
      </trkpt>
      <trkpt lat="46.23416" lon="5.79419">
        <ele>1170</ele>
        <time>2016-04-28T17:28:13Z</time>
      </trkpt>
      <trkpt lat="46.23437" lon="5.79323">
        <ele>1178</ele>
        <time>2016-04-28T17:30:13Z</time>
      </trkpt>
      <trkpt lat="46.23502" lon="5.79243">
        <ele>1172</ele>
        <time>2016-04-28T17:32:13Z</time>
      </trkpt>
      <trkpt lat="46.23547" lon="5.79116">
        <ele>1156</ele>
        <time>2016-04-28T17:34:13Z</time>
      </trkpt>
      <trkpt lat="46.23609" lon="5.79003">
        <ele>1146</ele>
        <time>2016-04-28T17:36:13Z</time>
      </trkpt>
      <trkpt lat="46.23627" lon="5.78836">
        <ele>1143</ele>
        <time>2016-04-28T17:38:13Z</time>
      </trkpt>
      <trkpt lat="46.23629" lon="5.78771">
        <ele>1138</ele>
        <time>2016-04-28T17:40:13Z</time>
      </trkpt>
      <trkpt lat="46.23628" lon="5.78654">
        <ele>1127</ele>
        <time>2016-04-28T17:42:13Z</time>
      </trkpt>
      <trkpt lat="46.23688" lon="5.78625">
        <ele>1117</ele>
        <time>2016-04-28T17:44:13Z</time>
      </trkpt>
      <trkpt lat="46.23695" lon="5.78528">
        <ele>1101</ele>
        <time>2016-04-28T17:46:13Z</time>
      </trkpt>
      <trkpt lat="46.2359" lon="5.78437">
        <ele>1097</ele>
        <time>2016-04-28T17:48:13Z</time>
      </trkpt>
      <trkpt lat="46.23544" lon="5.78331">
        <ele>1080</ele>
        <time>2016-04-28T17:50:13Z</time>
      </trkpt>
      <trkpt lat="46.2351" lon="5.78244">
        <ele>1069</ele>
        <time>2016-04-28T17:52:13Z</time>
      </trkpt>
      <trkpt lat="46.2346" lon="5.78105">
        <ele>1053</ele>
        <time>2016-04-28T17:54:13Z</time>
      </trkpt>
      <trkpt lat="46.23393" lon="5.77964">
        <ele>1036</ele>
        <time>2016-04-28T17:56:13Z</time>
      </trkpt>
      <trkpt lat="46.23292" lon="5.77867">
        <ele>1026</ele>
        <time>2016-04-28T17:58:13Z</time>
      </trkpt>
      <trkpt lat="46.23143" lon="5.77728">
        <ele>1020</ele>
        <time>2016-04-28T18:00:13Z</time>
      </trkpt>
      <trkpt lat="46.23056" lon="5.77632">
        <ele>1012</ele>
        <time>2016-04-28T18:02:13Z</time>
      </trkpt>
      <trkpt lat="46.22966" lon="5.77626">
        <ele>1010</ele>
        <time>2016-04-28T18:04:13Z</time>
      </trkpt>
      <trkpt lat="46.2283" lon="5.77507">
        <ele>1004</ele>
        <time>2016-04-28T18:06:13Z</time>
      </trkpt>
      <trkpt lat="46.22719" lon="5.77461">
        <ele>1005</ele>
        <time>2016-04-28T18:08:13Z</time>
      </trkpt>
      <trkpt lat="46.22603" lon="5.77434">
        <ele>1008</ele>
        <time>2016-04-28T18:10:13Z</time>
      </trkpt>
      <trkpt lat="46.22598" lon="5.77428">
        <ele>1008</ele>
        <time>2016-04-28T18:12:13Z</time>
      </trkpt>
      <trkpt lat="46.22564" lon="5.77386">
        <ele>1004</ele>
        <time>2016-04-28T18:14:13Z</time>
      </trkpt>
    </trkseg>
  </trk>
</gpx>